sensor_id;sensor_type;location;lat;lon;timestamp;P1;durP1;ratioP1;P2;durP2;ratioP2
3337;SDS011;1682;49.286;10.788;2022-08-01T00:02:10;2.40;;;2.20;;
3337;SDS011;1682;49.286;10.788;2022-08-01T00:04:58;2.67;;;2.43;;
3337;SDS011;1682;49.286;10.788;2022-08-01T00:07:46;2.97;;;2.77;;
3337;SDS011;1682;49.286;10.788;2022-08-01T00:10:34;2.67;;;2.47;;
3337;SDS011;1682;49.286;10.788;2022-08-01T00:13:23;3.50;;;2.80;;
3337;SDS011;1682;49.286;10.788;2022-08-01T00:16:10;2.33;;;2.20;;
3337;SDS011;1682;49.286;10.788;2022-08-01T00:18:58;5.23;;;2.50;;
3337;SDS011;1682;49.286;10.788;2022-08-01T00:21:45;5.30;;;4.30;;
3337;SDS011;1682;49.286;10.788;2022-08-01T00:24:33;2.20;;;2.10;;
3337;SDS011;1682;49.286;10.788;2022-08-01T00:27:20;2.23;;;2.13;;
3337;SDS011;1682;49.286;10.788;2022-08-01T00:30:09;2.13;;;2.03;;
3337;SDS011;1682;49.286;10.788;2022-08-01T00:32:57;2.40;;;2.20;;
3337;SDS011;1682;49.286;10.788;2022-08-01T00:35:44;2.80;;;2.60;;
3337;SDS011;1682;49.286;10.788;2022-08-01T00:38:32;2.57;;;2.37;;
3337;SDS011;1682;49.286;10.788;2022-08-01T00:41:19;2.53;;;2.33;;
3337;SDS011;1682;49.286;10.788;2022-08-01T00:44:07;3.00;;;2.80;;
3337;SDS011;1682;49.286;10.788;2022-08-01T00:46:56;2.70;;;1.93;;
3337;SDS011;1682;49.286;10.788;2022-08-01T00:49:43;3.00;;;2.80;;
3337;SDS011;1682;49.286;10.788;2022-08-01T00:52:31;3.03;;;2.70;;
3337;SDS011;1682;49.286;10.788;2022-08-01T00:55:19;2.50;;;2.30;;
3337;SDS011;1682;49.286;10.788;2022-08-01T00:58:07;2.70;;;2.50;;
3337;SDS011;1682;49.286;10.788;2022-08-01T01:00:54;2.73;;;2.53;;
3337;SDS011;1682;49.286;10.788;2022-08-01T01:03:43;2.60;;;2.40;;
3337;SDS011;1682;49.286;10.788;2022-08-01T01:06:35;2.70;;;2.50;;
3337;SDS011;1682;49.286;10.788;2022-08-01T01:09:31;2.50;;;2.30;;
3337;SDS011;1682;49.286;10.788;2022-08-01T01:12:22;2.50;;;2.30;;
3337;SDS011;1682;49.286;10.788;2022-08-01T01:15:13;2.40;;;2.30;;
3337;SDS011;1682;49.286;10.788;2022-08-01T01:18:03;2.37;;;2.27;;
3337;SDS011;1682;49.286;10.788;2022-08-01T01:20:55;5.83;;;2.90;;
3337;SDS011;1682;49.286;10.788;2022-08-01T01:23:50;2.87;;;2.67;;
3337;SDS011;1682;49.286;10.788;2022-08-01T01:26:43;3.90;;;2.27;;
3337;SDS011;1682;49.286;10.788;2022-08-01T01:29:35;2.43;;;2.23;;
3337;SDS011;1682;49.286;10.788;2022-08-01T01:32:28;4.17;;;2.63;;
3337;SDS011;1682;49.286;10.788;2022-08-01T01:35:19;5.90;;;5.10;;
3337;SDS011;1682;49.286;10.788;2022-08-01T01:38:09;3.10;;;2.90;;
3337;SDS011;1682;49.286;10.788;2022-08-01T01:40:57;2.63;;;2.53;;
3337;SDS011;1682;49.286;10.788;2022-08-01T01:43:46;5.00;;;3.03;;
3337;SDS011;1682;49.286;10.788;2022-08-01T01:46:35;2.80;;;2.60;;
3337;SDS011;1682;49.286;10.788;2022-08-01T01:49:23;3.90;;;2.40;;
3337;SDS011;1682;49.286;10.788;2022-08-01T01:52:11;3.30;;;3.10;;
3337;SDS011;1682;49.286;10.788;2022-08-01T01:54:59;2.90;;;2.70;;
3337;SDS011;1682;49.286;10.788;2022-08-01T01:57:50;3.20;;;3.00;;
3337;SDS011;1682;49.286;10.788;2022-08-01T02:00:39;3.33;;;3.13;;
3337;SDS011;1682;49.286;10.788;2022-08-01T02:03:28;3.87;;;3.47;;
3337;SDS011;1682;49.286;10.788;2022-08-01T02:06:17;3.23;;;2.87;;
3337;SDS011;1682;49.286;10.788;2022-08-01T02:09:05;2.90;;;2.70;;
3337;SDS011;1682;49.286;10.788;2022-08-01T02:11:54;3.20;;;3.00;;
3337;SDS011;1682;49.286;10.788;2022-08-01T02:14:42;3.63;;;3.33;;
3337;SDS011;1682;49.286;10.788;2022-08-01T02:17:31;3.00;;;2.50;;
3337;SDS011;1682;49.286;10.788;2022-08-01T02:20:20;2.77;;;2.57;;
3337;SDS011;1682;49.286;10.788;2022-08-01T02:23:10;2.67;;;2.47;;
3337;SDS011;1682;49.286;10.788;2022-08-01T02:25:58;2.97;;;2.77;;
3337;SDS011;1682;49.286;10.788;2022-08-01T02:28:49;2.80;;;2.60;;
3337;SDS011;1682;49.286;10.788;2022-08-01T02:31:38;2.40;;;2.30;;
3337;SDS011;1682;49.286;10.788;2022-08-01T02:34:29;3.10;;;2.90;;
3337;SDS011;1682;49.286;10.788;2022-08-01T02:37:19;3.47;;;2.47;;
3337;SDS011;1682;49.286;10.788;2022-08-01T02:40:07;2.90;;;2.63;;
3337;SDS011;1682;49.286;10.788;2022-08-01T02:42:56;3.07;;;2.87;;
3337;SDS011;1682;49.286;10.788;2022-08-01T02:45:45;3.10;;;2.80;;
3337;SDS011;1682;49.286;10.788;2022-08-01T02:48:34;2.50;;;2.30;;
3337;SDS011;1682;49.286;10.788;2022-08-01T02:51:23;2.70;;;2.50;;
3337;SDS011;1682;49.286;10.788;2022-08-01T02:54:13;3.23;;;2.90;;
3337;SDS011;1682;49.286;10.788;2022-08-01T02:57:02;2.60;;;2.40;;
3337;SDS011;1682;49.286;10.788;2022-08-01T02:59:50;3.00;;;2.80;;
3337;SDS011;1682;49.286;10.788;2022-08-01T03:02:39;2.73;;;2.53;;
3337;SDS011;1682;49.286;10.788;2022-08-01T03:05:27;3.17;;;2.97;;
3337;SDS011;1682;49.286;10.788;2022-08-01T03:08:14;2.87;;;2.63;;
3337;SDS011;1682;49.286;10.788;2022-08-01T03:11:05;3.50;;;3.20;;
3337;SDS011;1682;49.286;10.788;2022-08-01T03:13:53;3.27;;;3.03;;
3337;SDS011;1682;49.286;10.788;2022-08-01T03:16:42;2.53;;;2.43;;
3337;SDS011;1682;49.286;10.788;2022-08-01T03:19:32;2.77;;;2.57;;
3337;SDS011;1682;49.286;10.788;2022-08-01T03:22:23;2.90;;;2.70;;
3337;SDS011;1682;49.286;10.788;2022-08-01T03:25:12;2.83;;;2.60;;
3337;SDS011;1682;49.286;10.788;2022-08-01T03:28:03;3.03;;;2.80;;
3337;SDS011;1682;49.286;10.788;2022-08-01T03:30:50;3.33;;;3.00;;
3337;SDS011;1682;49.286;10.788;2022-08-01T03:33:38;3.20;;;3.00;;
3337;SDS011;1682;49.286;10.788;2022-08-01T03:36:26;3.67;;;3.37;;
3337;SDS011;1682;49.286;10.788;2022-08-01T03:39:14;2.63;;;2.40;;
3337;SDS011;1682;49.286;10.788;2022-08-01T03:42:05;3.23;;;2.93;;
3337;SDS011;1682;49.286;10.788;2022-08-01T03:44:54;3.40;;;3.20;;
3337;SDS011;1682;49.286;10.788;2022-08-01T03:47:43;3.67;;;3.37;;
3337;SDS011;1682;49.286;10.788;2022-08-01T03:50:31;3.10;;;2.80;;
3337;SDS011;1682;49.286;10.788;2022-08-01T03:53:20;2.83;;;2.00;;
3337;SDS011;1682;49.286;10.788;2022-08-01T03:56:09;3.10;;;2.93;;
3337;SDS011;1682;49.286;10.788;2022-08-01T03:58:57;4.20;;;3.80;;
3337;SDS011;1682;49.286;10.788;2022-08-01T04:01:47;3.03;;;2.83;;
3337;SDS011;1682;49.286;10.788;2022-08-01T04:04:34;2.93;;;2.73;;
3337;SDS011;1682;49.286;10.788;2022-08-01T04:07:22;3.13;;;2.73;;
3337;SDS011;1682;49.286;10.788;2022-08-01T04:10:10;3.03;;;2.77;;
3337;SDS011;1682;49.286;10.788;2022-08-01T04:12:58;3.70;;;2.90;;
3337;SDS011;1682;49.286;10.788;2022-08-01T04:15:46;3.40;;;3.20;;
3337;SDS011;1682;49.286;10.788;2022-08-01T04:18:35;3.30;;;3.00;;
3337;SDS011;1682;49.286;10.788;2022-08-01T04:21:22;3.37;;;3.20;;
3337;SDS011;1682;49.286;10.788;2022-08-01T04:24:10;2.90;;;2.70;;
3337;SDS011;1682;49.286;10.788;2022-08-01T04:27:00;3.37;;;3.00;;
3337;SDS011;1682;49.286;10.788;2022-08-01T04:29:48;3.30;;;3.10;;
3337;SDS011;1682;49.286;10.788;2022-08-01T04:32:37;3.47;;;3.27;;
3337;SDS011;1682;49.286;10.788;2022-08-01T04:35:26;6.43;;;3.73;;
3337;SDS011;1682;49.286;10.788;2022-08-01T04:38:16;2.73;;;2.53;;
3337;SDS011;1682;49.286;10.788;2022-08-01T04:41:06;3.47;;;3.27;;
3337;SDS011;1682;49.286;10.788;2022-08-01T04:43:54;3.33;;;3.00;;
3337;SDS011;1682;49.286;10.788;2022-08-01T04:46:41;6.10;;;3.67;;
3337;SDS011;1682;49.286;10.788;2022-08-01T04:49:30;3.60;;;3.37;;
3337;SDS011;1682;49.286;10.788;2022-08-01T04:52:19;2.87;;;2.67;;
3337;SDS011;1682;49.286;10.788;2022-08-01T04:55:07;3.70;;;3.50;;
3337;SDS011;1682;49.286;10.788;2022-08-01T04:57:55;3.10;;;2.90;;
3337;SDS011;1682;49.286;10.788;2022-08-01T05:00:43;3.70;;;3.13;;
3337;SDS011;1682;49.286;10.788;2022-08-01T05:03:30;3.70;;;3.50;;
3337;SDS011;1682;49.286;10.788;2022-08-01T05:06:18;2.93;;;2.80;;
3337;SDS011;1682;49.286;10.788;2022-08-01T05:09:07;5.53;;;5.13;;
3337;SDS011;1682;49.286;10.788;2022-08-01T05:11:54;3.20;;;2.90;;
3337;SDS011;1682;49.286;10.788;2022-08-01T05:14:43;3.10;;;2.90;;
3337;SDS011;1682;49.286;10.788;2022-08-01T05:17:31;7.13;;;3.30;;
3337;SDS011;1682;49.286;10.788;2022-08-01T05:20:18;4.97;;;3.27;;
3337;SDS011;1682;49.286;10.788;2022-08-01T05:23:06;3.13;;;2.90;;
3337;SDS011;1682;49.286;10.788;2022-08-01T05:25:55;3.60;;;3.30;;
3337;SDS011;1682;49.286;10.788;2022-08-01T05:28:43;2.83;;;2.63;;
3337;SDS011;1682;49.286;10.788;2022-08-01T05:31:31;3.33;;;2.63;;
3337;SDS011;1682;49.286;10.788;2022-08-01T05:34:20;3.37;;;3.13;;
3337;SDS011;1682;49.286;10.788;2022-08-01T05:37:07;5.43;;;2.93;;
3337;SDS011;1682;49.286;10.788;2022-08-01T05:39:55;2.70;;;2.60;;
3337;SDS011;1682;49.286;10.788;2022-08-01T05:42:43;3.13;;;2.93;;
3337;SDS011;1682;49.286;10.788;2022-08-01T05:45:31;3.10;;;2.90;;
3337;SDS011;1682;49.286;10.788;2022-08-01T05:48:18;2.87;;;2.67;;
3337;SDS011;1682;49.286;10.788;2022-08-01T05:51:06;3.20;;;3.00;;
3337;SDS011;1682;49.286;10.788;2022-08-01T05:53:53;2.90;;;2.70;;
3337;SDS011;1682;49.286;10.788;2022-08-01T05:56:41;4.07;;;3.60;;
3337;SDS011;1682;49.286;10.788;2022-08-01T05:59:30;5.10;;;3.10;;
3337;SDS011;1682;49.286;10.788;2022-08-01T06:02:17;3.07;;;2.77;;
3337;SDS011;1682;49.286;10.788;2022-08-01T06:05:05;3.10;;;2.80;;
3337;SDS011;1682;49.286;10.788;2022-08-01T06:07:53;2.83;;;2.63;;
3337;SDS011;1682;49.286;10.788;2022-08-01T06:10:40;3.50;;;3.20;;
3337;SDS011;1682;49.286;10.788;2022-08-01T06:13:28;2.93;;;2.73;;
3337;SDS011;1682;49.286;10.788;2022-08-01T06:16:17;2.47;;;2.20;;
3337;SDS011;1682;49.286;10.788;2022-08-01T06:19:04;6.73;;;6.10;;
3337;SDS011;1682;49.286;10.788;2022-08-01T06:21:52;3.30;;;3.10;;
3337;SDS011;1682;49.286;10.788;2022-08-01T06:24:39;2.90;;;2.70;;
3337;SDS011;1682;49.286;10.788;2022-08-01T06:27:27;3.73;;;3.43;;
3337;SDS011;1682;49.286;10.788;2022-08-01T06:30:14;2.90;;;2.80;;
3337;SDS011;1682;49.286;10.788;2022-08-01T06:33:03;2.70;;;2.50;;
3337;SDS011;1682;49.286;10.788;2022-08-01T06:35:51;3.30;;;3.00;;
3337;SDS011;1682;49.286;10.788;2022-08-01T06:38:38;2.60;;;2.40;;
3337;SDS011;1682;49.286;10.788;2022-08-01T06:41:25;2.50;;;2.27;;
3337;SDS011;1682;49.286;10.788;2022-08-01T06:44:13;2.73;;;2.17;;
3337;SDS011;1682;49.286;10.788;2022-08-01T06:47:00;4.77;;;2.10;;
3337;SDS011;1682;49.286;10.788;2022-08-01T06:49:49;1.70;;;1.60;;
3337;SDS011;1682;49.286;10.788;2022-08-01T06:52:37;1.80;;;1.70;;
3337;SDS011;1682;49.286;10.788;2022-08-01T06:55:25;1.87;;;1.77;;
3337;SDS011;1682;49.286;10.788;2022-08-01T06:58:12;4.30;;;2.40;;
3337;SDS011;1682;49.286;10.788;2022-08-01T07:01:00;2.87;;;2.67;;
3337;SDS011;1682;49.286;10.788;2022-08-01T07:03:47;1.80;;;1.70;;
3337;SDS011;1682;49.286;10.788;2022-08-01T07:06:36;2.47;;;2.37;;
3337;SDS011;1682;49.286;10.788;2022-08-01T07:09:24;2.30;;;1.70;;
3337;SDS011;1682;49.286;10.788;2022-08-01T07:12:11;3.10;;;1.80;;
3337;SDS011;1682;49.286;10.788;2022-08-01T07:14:59;3.40;;;1.80;;
3337;SDS011;1682;49.286;10.788;2022-08-01T07:17:46;2.13;;;2.03;;
3337;SDS011;1682;49.286;10.788;2022-08-01T07:20:34;4.03;;;1.87;;
3337;SDS011;1682;49.286;10.788;2022-08-01T07:23:23;3.10;;;2.90;;
3337;SDS011;1682;49.286;10.788;2022-08-01T07:26:10;3.60;;;2.40;;
3337;SDS011;1682;49.286;10.788;2022-08-01T07:28:58;6.50;;;2.00;;
3337;SDS011;1682;49.286;10.788;2022-08-01T07:31:46;2.20;;;2.10;;
3337;SDS011;1682;49.286;10.788;2022-08-01T07:34:33;2.10;;;1.90;;
3337;SDS011;1682;49.286;10.788;2022-08-01T07:37:21;3.23;;;3.03;;
3337;SDS011;1682;49.286;10.788;2022-08-01T07:40:11;2.60;;;2.40;;
3337;SDS011;1682;49.286;10.788;2022-08-01T07:42:58;2.70;;;2.13;;
3337;SDS011;1682;49.286;10.788;2022-08-01T07:45:46;2.40;;;2.30;;
3337;SDS011;1682;49.286;10.788;2022-08-01T07:48:33;1.93;;;1.83;;
3337;SDS011;1682;49.286;10.788;2022-08-01T07:51:21;2.90;;;2.40;;
3337;SDS011;1682;49.286;10.788;2022-08-01T07:54:08;4.90;;;2.40;;
3337;SDS011;1682;49.286;10.788;2022-08-01T07:56:57;3.00;;;2.80;;
3337;SDS011;1682;49.286;10.788;2022-08-01T07:59:45;2.80;;;2.10;;
3337;SDS011;1682;49.286;10.788;2022-08-01T08:02:32;2.63;;;2.10;;
3337;SDS011;1682;49.286;10.788;2022-08-01T08:05:20;2.20;;;2.03;;
3337;SDS011;1682;49.286;10.788;2022-08-01T08:08:07;2.07;;;1.97;;
3337;SDS011;1682;49.286;10.788;2022-08-01T08:10:55;2.00;;;1.90;;
3337;SDS011;1682;49.286;10.788;2022-08-01T08:13:44;2.10;;;2.00;;
3337;SDS011;1682;49.286;10.788;2022-08-01T08:16:31;2.37;;;2.10;;
3337;SDS011;1682;49.286;10.788;2022-08-01T08:19:19;1.70;;;1.60;;
3337;SDS011;1682;49.286;10.788;2022-08-01T08:22:07;2.13;;;1.90;;
3337;SDS011;1682;49.286;10.788;2022-08-01T08:24:54;2.27;;;2.10;;
3337;SDS011;1682;49.286;10.788;2022-08-01T08:27:42;5.17;;;2.87;;
3337;SDS011;1682;49.286;10.788;2022-08-01T08:30:31;2.40;;;1.93;;
3337;SDS011;1682;49.286;10.788;2022-08-01T08:33:18;3.33;;;2.00;;
3337;SDS011;1682;49.286;10.788;2022-08-01T08:36:06;1.80;;;1.70;;
3337;SDS011;1682;49.286;10.788;2022-08-01T08:38:53;2.00;;;1.90;;
3337;SDS011;1682;49.286;10.788;2022-08-01T08:41:41;1.80;;;1.70;;
3337;SDS011;1682;49.286;10.788;2022-08-01T08:44:29;2.30;;;1.60;;
3337;SDS011;1682;49.286;10.788;2022-08-01T08:47:17;3.17;;;2.50;;
3337;SDS011;1682;49.286;10.788;2022-08-01T08:50:06;1.70;;;1.60;;
3337;SDS011;1682;49.286;10.788;2022-08-01T08:52:54;3.50;;;2.20;;
3337;SDS011;1682;49.286;10.788;2022-08-01T08:55:42;2.30;;;2.10;;
3337;SDS011;1682;49.286;10.788;2022-08-01T08:58:30;1.70;;;1.60;;
3337;SDS011;1682;49.286;10.788;2022-08-01T09:01:22;1.93;;;1.83;;
3337;SDS011;1682;49.286;10.788;2022-08-01T09:04:11;1.90;;;1.50;;
3337;SDS011;1682;49.286;10.788;2022-08-01T09:06:59;1.80;;;1.70;;
3337;SDS011;1682;49.286;10.788;2022-08-01T09:09:46;1.97;;;1.77;;
3337;SDS011;1682;49.286;10.788;2022-08-01T09:12:35;3.63;;;3.10;;
3337;SDS011;1682;49.286;10.788;2022-08-01T09:15:26;2.10;;;1.60;;
3337;SDS011;1682;49.286;10.788;2022-08-01T09:18:28;4.50;;;1.77;;
3337;SDS011;1682;49.286;10.788;2022-08-01T09:21:20;2.73;;;1.23;;
3337;SDS011;1682;49.286;10.788;2022-08-01T09:24:13;1.80;;;1.50;;
3337;SDS011;1682;49.286;10.788;2022-08-01T09:27:02;1.53;;;1.43;;
3337;SDS011;1682;49.286;10.788;2022-08-01T09:30:09;1.50;;;1.40;;
3337;SDS011;1682;49.286;10.788;2022-08-01T09:32:57;1.53;;;1.43;;
3337;SDS011;1682;49.286;10.788;2022-08-01T09:35:45;2.50;;;1.57;;
3337;SDS011;1682;49.286;10.788;2022-08-01T09:38:42;1.83;;;1.30;;
3337;SDS011;1682;49.286;10.788;2022-08-01T09:41:29;3.10;;;1.63;;
3337;SDS011;1682;49.286;10.788;2022-08-01T09:44:17;4.80;;;4.03;;
3337;SDS011;1682;49.286;10.788;2022-08-01T09:47:05;1.20;;;1.10;;
3337;SDS011;1682;49.286;10.788;2022-08-01T09:49:54;1.30;;;1.30;;
3337;SDS011;1682;49.286;10.788;2022-08-01T09:52:48;1.27;;;1.20;;
3337;SDS011;1682;49.286;10.788;2022-08-01T09:55:43;1.80;;;1.33;;
3337;SDS011;1682;49.286;10.788;2022-08-01T10:01:20;1.97;;;1.80;;
3337;SDS011;1682;49.286;10.788;2022-08-01T10:04:08;2.03;;;1.30;;
3337;SDS011;1682;49.286;10.788;2022-08-01T10:07:04;1.40;;;1.10;;
3337;SDS011;1682;49.286;10.788;2022-08-01T10:09:51;3.70;;;3.40;;
3337;SDS011;1682;49.286;10.788;2022-08-01T10:12:41;2.00;;;1.30;;
3337;SDS011;1682;49.286;10.788;2022-08-01T10:15:28;1.40;;;1.30;;
3337;SDS011;1682;49.286;10.788;2022-08-01T10:18:17;1.80;;;1.37;;
3337;SDS011;1682;49.286;10.788;2022-08-01T10:21:05;1.33;;;1.20;;
3337;SDS011;1682;49.286;10.788;2022-08-01T10:23:52;1.90;;;1.80;;
3337;SDS011;1682;49.286;10.788;2022-08-01T10:26:41;2.50;;;2.30;;
3337;SDS011;1682;49.286;10.788;2022-08-01T10:29:34;1.27;;;1.17;;
3337;SDS011;1682;49.286;10.788;2022-08-01T10:32:23;0.90;;;0.90;;
3337;SDS011;1682;49.286;10.788;2022-08-01T10:35:10;2.27;;;1.10;;
3337;SDS011;1682;49.286;10.788;2022-08-01T10:38:02;1.23;;;1.13;;
3337;SDS011;1682;49.286;10.788;2022-08-01T10:40:50;1.77;;;1.30;;
3337;SDS011;1682;49.286;10.788;2022-08-01T10:43:38;1.30;;;1.20;;
3337;SDS011;1682;49.286;10.788;2022-08-01T10:46:27;1.27;;;1.10;;
3337;SDS011;1682;49.286;10.788;2022-08-01T10:49:16;1.00;;;1.00;;
3337;SDS011;1682;49.286;10.788;2022-08-01T10:52:04;1.23;;;1.13;;
3337;SDS011;1682;49.286;10.788;2022-08-01T10:55:01;1.00;;;0.90;;
3337;SDS011;1682;49.286;10.788;2022-08-01T10:57:48;1.50;;;1.40;;
3337;SDS011;1682;49.286;10.788;2022-08-01T11:00:36;5.07;;;4.60;;
3337;SDS011;1682;49.286;10.788;2022-08-01T11:03:33;1.47;;;1.37;;
3337;SDS011;1682;49.286;10.788;2022-08-01T11:06:24;1.80;;;1.60;;
3337;SDS011;1682;49.286;10.788;2022-08-01T11:09:20;0.80;;;0.80;;
3337;SDS011;1682;49.286;10.788;2022-08-01T11:12:10;0.97;;;0.97;;
3337;SDS011;1682;49.286;10.788;2022-08-01T11:15:22;1.17;;;1.03;;
3337;SDS011;1682;49.286;10.788;2022-08-01T11:18:29;6.13;;;1.50;;
3337;SDS011;1682;49.286;10.788;2022-08-01T11:21:18;1.37;;;1.27;;
3337;SDS011;1682;49.286;10.788;2022-08-01T11:24:09;0.90;;;0.90;;
3337;SDS011;1682;49.286;10.788;2022-08-01T11:33:05;1.20;;;1.13;;
3337;SDS011;1682;49.286;10.788;2022-08-01T11:42:20;1.40;;;1.23;;
3337;SDS011;1682;49.286;10.788;2022-08-01T11:45:08;0.70;;;0.70;;
3337;SDS011;1682;49.286;10.788;2022-08-01T11:47:56;3.13;;;1.30;;
3337;SDS011;1682;49.286;10.788;2022-08-01T11:50:44;2.17;;;1.40;;
3337;SDS011;1682;49.286;10.788;2022-08-01T11:53:31;0.80;;;0.80;;
3337;SDS011;1682;49.286;10.788;2022-08-01T11:56:20;1.10;;;1.10;;
3337;SDS011;1682;49.286;10.788;2022-08-01T11:59:13;1.00;;;0.93;;
3337;SDS011;1682;49.286;10.788;2022-08-01T12:02:01;0.70;;;0.70;;
3337;SDS011;1682;49.286;10.788;2022-08-01T12:04:49;0.83;;;0.83;;
3337;SDS011;1682;49.286;10.788;2022-08-01T12:07:38;1.67;;;0.80;;
3337;SDS011;1682;49.286;10.788;2022-08-01T12:10:26;1.03;;;0.90;;
3337;SDS011;1682;49.286;10.788;2022-08-01T12:13:17;0.80;;;0.80;;
3337;SDS011;1682;49.286;10.788;2022-08-01T12:16:07;0.70;;;0.70;;
3337;SDS011;1682;49.286;10.788;2022-08-01T12:18:55;0.90;;;0.90;;
3337;SDS011;1682;49.286;10.788;2022-08-01T12:21:42;1.10;;;0.88;;
3337;SDS011;1682;49.286;10.788;2022-08-01T12:24:30;1.08;;;0.98;;
3337;SDS011;1682;49.286;10.788;2022-08-01T12:27:24;1.77;;;1.45;;
3337;SDS011;1682;49.286;10.788;2022-08-01T12:30:12;0.80;;;0.80;;
3337;SDS011;1682;49.286;10.788;2022-08-01T12:33:03;4.53;;;1.42;;
3337;SDS011;1682;49.286;10.788;2022-08-01T12:35:51;0.90;;;0.90;;
3337;SDS011;1682;49.286;10.788;2022-08-01T12:38:39;1.27;;;0.90;;
3337;SDS011;1682;49.286;10.788;2022-08-01T12:41:26;1.42;;;1.38;;
3337;SDS011;1682;49.286;10.788;2022-08-01T12:44:14;1.45;;;1.35;;
3337;SDS011;1682;49.286;10.788;2022-08-01T12:47:02;0.95;;;0.90;;
3337;SDS011;1682;49.286;10.788;2022-08-01T12:49:52;1.00;;;0.90;;
3337;SDS011;1682;49.286;10.788;2022-08-01T12:52:40;0.80;;;0.80;;
3337;SDS011;1682;49.286;10.788;2022-08-01T12:55:27;1.20;;;1.08;;
3337;SDS011;1682;49.286;10.788;2022-08-01T12:58:15;1.00;;;0.90;;
3337;SDS011;1682;49.286;10.788;2022-08-01T13:01:04;2.25;;;2.05;;
3337;SDS011;1682;49.286;10.788;2022-08-01T13:04:02;1.27;;;1.17;;
3337;SDS011;1682;49.286;10.788;2022-08-01T13:06:53;1.45;;;1.35;;
3337;SDS011;1682;49.286;10.788;2022-08-01T13:09:48;1.20;;;1.20;;
3337;SDS011;1682;49.286;10.788;2022-08-01T13:12:35;1.10;;;1.10;;
3337;SDS011;1682;49.286;10.788;2022-08-01T13:15:25;1.20;;;1.10;;
3337;SDS011;1682;49.286;10.788;2022-08-01T13:18:22;1.30;;;1.30;;
3337;SDS011;1682;49.286;10.788;2022-08-01T13:21:11;0.80;;;0.80;;
3337;SDS011;1682;49.286;10.788;2022-08-01T13:24:01;1.13;;;1.00;;
3337;SDS011;1682;49.286;10.788;2022-08-01T13:26:50;1.37;;;1.27;;
3337;SDS011;1682;49.286;10.788;2022-08-01T13:29:39;1.53;;;1.00;;
3337;SDS011;1682;49.286;10.788;2022-08-01T13:32:27;2.60;;;1.00;;
3337;SDS011;1682;49.286;10.788;2022-08-01T13:35:20;1.33;;;0.83;;
3337;SDS011;1682;49.286;10.788;2022-08-01T13:38:08;1.00;;;1.00;;
3337;SDS011;1682;49.286;10.788;2022-08-01T13:40:58;1.33;;;1.20;;
3337;SDS011;1682;49.286;10.788;2022-08-01T13:43:46;2.00;;;1.00;;
3337;SDS011;1682;49.286;10.788;2022-08-01T13:46:33;1.40;;;1.30;;
3337;SDS011;1682;49.286;10.788;2022-08-01T13:49:21;1.87;;;1.57;;
3337;SDS011;1682;49.286;10.788;2022-08-01T13:52:09;0.90;;;0.90;;
3337;SDS011;1682;49.286;10.788;2022-08-01T13:54:56;1.67;;;1.58;;
3337;SDS011;1682;49.286;10.788;2022-08-01T13:57:45;0.75;;;0.75;;
3337;SDS011;1682;49.286;10.788;2022-08-01T14:00:32;0.70;;;0.70;;
3337;SDS011;1682;49.286;10.788;2022-08-01T14:03:20;0.90;;;0.90;;
3337;SDS011;1682;49.286;10.788;2022-08-01T14:06:07;0.65;;;0.65;;
3337;SDS011;1682;49.286;10.788;2022-08-01T14:08:55;2.60;;;0.82;;
3337;SDS011;1682;49.286;10.788;2022-08-01T14:11:42;1.75;;;0.73;;
3337;SDS011;1682;49.286;10.788;2022-08-01T14:14:31;0.82;;;0.82;;
3337;SDS011;1682;49.286;10.788;2022-08-01T14:17:19;0.75;;;0.75;;
3337;SDS011;1682;49.286;10.788;2022-08-01T14:20:07;1.48;;;0.90;;
3337;SDS011;1682;49.286;10.788;2022-08-01T14:22:54;1.17;;;0.70;;
3337;SDS011;1682;49.286;10.788;2022-08-01T14:25:42;3.08;;;0.90;;
3337;SDS011;1682;49.286;10.788;2022-08-01T14:28:30;1.40;;;1.30;;
3337;SDS011;1682;49.286;10.788;2022-08-01T14:31:20;0.95;;;0.80;;
3337;SDS011;1682;49.286;10.788;2022-08-01T14:34:07;3.70;;;0.90;;
3337;SDS011;1682;49.286;10.788;2022-08-01T14:36:55;1.40;;;1.30;;
3337;SDS011;1682;49.286;10.788;2022-08-01T14:39:42;1.90;;;1.35;;
3337;SDS011;1682;49.286;10.788;2022-08-01T14:42:29;1.05;;;0.90;;
3337;SDS011;1682;49.286;10.788;2022-08-01T14:45:17;1.10;;;1.00;;
3337;SDS011;1682;49.286;10.788;2022-08-01T14:48:06;2.53;;;1.95;;
3337;SDS011;1682;49.286;10.788;2022-08-01T14:50:53;1.08;;;1.00;;
3337;SDS011;1682;49.286;10.788;2022-08-01T14:53:41;1.65;;;1.15;;
3337;SDS011;1682;49.286;10.788;2022-08-01T14:56:29;1.08;;;1.05;;
3337;SDS011;1682;49.286;10.788;2022-08-01T14:59:16;0.70;;;0.70;;
3337;SDS011;1682;49.286;10.788;2022-08-01T15:02:04;0.70;;;0.70;;
3337;SDS011;1682;49.286;10.788;2022-08-01T15:04:52;1.05;;;1.00;;
3337;SDS011;1682;49.286;10.788;2022-08-01T15:07:40;0.65;;;0.65;;
3337;SDS011;1682;49.286;10.788;2022-08-01T15:10:27;1.35;;;1.10;;
3337;SDS011;1682;49.286;10.788;2022-08-01T15:13:17;1.98;;;1.00;;
3337;SDS011;1682;49.286;10.788;2022-08-01T15:16:04;0.80;;;0.80;;
3337;SDS011;1682;49.286;10.788;2022-08-01T15:18:52;0.80;;;0.80;;
3337;SDS011;1682;49.286;10.788;2022-08-01T15:21:41;1.00;;;1.00;;
3337;SDS011;1682;49.286;10.788;2022-08-01T15:24:28;1.02;;;0.95;;
3337;SDS011;1682;49.286;10.788;2022-08-01T15:27:16;1.13;;;1.05;;
3337;SDS011;1682;49.286;10.788;2022-08-01T15:30:04;0.80;;;0.80;;
3337;SDS011;1682;49.286;10.788;2022-08-01T15:32:51;0.73;;;0.73;;
3337;SDS011;1682;49.286;10.788;2022-08-01T15:35:39;1.63;;;1.52;;
3337;SDS011;1682;49.286;10.788;2022-08-01T15:38:29;0.98;;;0.98;;
3337;SDS011;1682;49.286;10.788;2022-08-01T15:41:16;2.75;;;1.30;;
3337;SDS011;1682;49.286;10.788;2022-08-01T15:44:04;0.80;;;0.80;;
3337;SDS011;1682;49.286;10.788;2022-08-01T15:46:51;0.80;;;0.80;;
3337;SDS011;1682;49.286;10.788;2022-08-01T15:49:39;4.03;;;1.00;;
3337;SDS011;1682;49.286;10.788;2022-08-01T15:52:26;0.98;;;0.80;;
3337;SDS011;1682;49.286;10.788;2022-08-01T15:55:15;0.80;;;0.80;;
3337;SDS011;1682;49.286;10.788;2022-08-01T15:58:03;1.37;;;0.90;;
3337;SDS011;1682;49.286;10.788;2022-08-01T16:00:50;2.20;;;0.80;;
3337;SDS011;1682;49.286;10.788;2022-08-01T16:03:38;0.97;;;0.90;;
3337;SDS011;1682;49.286;10.788;2022-08-01T16:06:25;0.83;;;0.83;;
3337;SDS011;1682;49.286;10.788;2022-08-01T16:09:13;1.63;;;1.53;;
3337;SDS011;1682;49.286;10.788;2022-08-01T16:12:02;0.90;;;0.90;;
3337;SDS011;1682;49.286;10.788;2022-08-01T16:14:49;1.33;;;1.00;;
3337;SDS011;1682;49.286;10.788;2022-08-01T16:17:37;3.27;;;1.10;;
3337;SDS011;1682;49.286;10.788;2022-08-01T16:20:24;0.87;;;0.87;;
3337;SDS011;1682;49.286;10.788;2022-08-01T16:23:12;1.20;;;1.10;;
3337;SDS011;1682;49.286;10.788;2022-08-01T16:26:00;0.80;;;0.80;;
3337;SDS011;1682;49.286;10.788;2022-08-01T16:28:49;1.53;;;1.20;;
3337;SDS011;1682;49.286;10.788;2022-08-01T16:31:37;1.90;;;1.40;;
3337;SDS011;1682;49.286;10.788;2022-08-01T16:34:25;1.47;;;1.30;;
3337;SDS011;1682;49.286;10.788;2022-08-01T16:37:12;0.90;;;0.90;;
3337;SDS011;1682;49.286;10.788;2022-08-01T16:40:00;1.07;;;0.93;;
3337;SDS011;1682;49.286;10.788;2022-08-01T16:42:48;2.00;;;1.90;;
3337;SDS011;1682;49.286;10.788;2022-08-01T16:45:37;2.17;;;1.97;;
3337;SDS011;1682;49.286;10.788;2022-08-01T16:48:27;0.90;;;0.90;;
3337;SDS011;1682;49.286;10.788;2022-08-01T16:51:14;0.80;;;0.80;;
3337;SDS011;1682;49.286;10.788;2022-08-01T16:54:02;1.00;;;1.00;;
3337;SDS011;1682;49.286;10.788;2022-08-01T16:56:49;1.57;;;0.90;;
3337;SDS011;1682;49.286;10.788;2022-08-01T16:59:37;2.23;;;1.90;;
3337;SDS011;1682;49.286;10.788;2022-08-01T17:02:26;1.00;;;0.80;;
3337;SDS011;1682;49.286;10.788;2022-08-01T17:05:13;1.10;;;1.00;;
3337;SDS011;1682;49.286;10.788;2022-08-01T17:08:01;1.20;;;1.10;;
3337;SDS011;1682;49.286;10.788;2022-08-01T17:10:48;0.90;;;0.90;;
3337;SDS011;1682;49.286;10.788;2022-08-01T17:13:36;2.60;;;0.97;;
3337;SDS011;1682;49.286;10.788;2022-08-01T17:16:23;1.33;;;1.03;;
3337;SDS011;1682;49.286;10.788;2022-08-01T17:19:12;1.33;;;0.90;;
3337;SDS011;1682;49.286;10.788;2022-08-01T17:22:00;1.37;;;1.10;;
3337;SDS011;1682;49.286;10.788;2022-08-01T17:24:47;1.93;;;1.20;;
3337;SDS011;1682;49.286;10.788;2022-08-01T17:27:36;1.00;;;1.00;;